sensor_id;sensor_type;location;lat;lon;timestamp;temperature;humidity
8565;DHT22;4320;51.498;6.556;2023-02-28T00:01:09;3.10;1.00
8565;DHT22;4320;51.498;6.556;2023-02-28T00:03:34;3.10;1.00
8565;DHT22;4320;51.498;6.556;2023-02-28T00:06:02;3.10;1.00
8565;DHT22;4320;51.498;6.556;2023-02-28T00:08:28;3.10;1.00
8565;DHT22;4320;51.498;6.556;2023-02-28T00:10:53;3.00;1.00
8565;DHT22;4320;51.498;6.556;2023-02-28T00:13:19;3.00;1.00
8565;DHT22;4320;51.498;6.556;2023-02-28T00:15:45;3.00;1.00
8565;DHT22;4320;51.498;6.556;2023-02-28T00:18:11;3.00;1.00
8565;DHT22;4320;51.498;6.556;2023-02-28T00:20:37;3.00;1.00
8565;DHT22;4320;51.498;6.556;2023-02-28T00:23:03;2.90;1.00
8565;DHT22;4320;51.498;6.556;2023-02-28T00:25:28;2.90;1.00
8565;DHT22;4320;51.498;6.556;2023-02-28T00:27:54;2.90;1.00
8565;DHT22;4320;51.498;6.556;2023-02-28T00:30:22;2.90;1.00
8565;DHT22;4320;51.498;6.556;2023-02-28T00:32:48;2.80;1.00
8565;DHT22;4320;51.498;6.556;2023-02-28T00:35:14;2.80;1.00
8565;DHT22;4320;51.498;6.556;2023-02-28T00:37:39;2.80;1.00
8565;DHT22;4320;51.498;6.556;2023-02-28T00:40:06;2.80;1.00
8565;DHT22;4320;51.498;6.556;2023-02-28T00:42:34;2.80;1.00
8565;DHT22;4320;51.498;6.556;2023-02-28T00:45:00;2.80;1.00
8565;DHT22;4320;51.498;6.556;2023-02-28T00:47:26;2.80;1.00
8565;DHT22;4320;51.498;6.556;2023-02-28T00:49:52;2.70;1.00
8565;DHT22;4320;51.498;6.556;2023-02-28T00:52:17;2.70;1.00
8565;DHT22;4320;51.498;6.556;2023-02-28T00:54:43;2.70;1.00
8565;DHT22;4320;51.498;6.556;2023-02-28T00:57:09;2.70;1.00
8565;DHT22;4320;51.498;6.556;2023-02-28T00:59:35;2.70;1.00
8565;DHT22;4320;51.498;6.556;2023-02-28T01:02:01;2.70;1.00
8565;DHT22;4320;51.498;6.556;2023-02-28T01:04:26;2.70;1.00
8565;DHT22;4320;51.498;6.556;2023-02-28T01:06:52;2.70;1.00
8565;DHT22;4320;51.498;6.556;2023-02-28T01:09:18;2.70;1.00
8565;DHT22;4320;51.498;6.556;2023-02-28T01:11:43;2.60;1.00
8565;DHT22;4320;51.498;6.556;2023-02-28T01:14:12;2.60;1.00
8565;DHT22;4320;51.498;6.556;2023-02-28T01:16:39;2.60;1.00
8565;DHT22;4320;51.498;6.556;2023-02-28T01:19:04;2.50;1.00
8565;DHT22;4320;51.498;6.556;2023-02-28T01:21:30;2.50;1.00
8565;DHT22;4320;51.498;6.556;2023-02-28T01:23:57;2.50;1.00
8565;DHT22;4320;51.498;6.556;2023-02-28T01:26:23;2.50;1.00
8565;DHT22;4320;51.498;6.556;2023-02-28T01:28:50;2.50;1.00
8565;DHT22;4320;51.498;6.556;2023-02-28T01:31:17;2.40;1.00
8565;DHT22;4320;51.498;6.556;2023-02-28T01:33:44;2.50;1.00
8565;DHT22;4320;51.498;6.556;2023-02-28T01:36:12;2.50;1.00
8565;DHT22;4320;51.498;6.556;2023-02-28T01:38:38;2.50;1.00
8565;DHT22;4320;51.498;6.556;2023-02-28T01:41:05;2.40;1.00
8565;DHT22;4320;51.498;6.556;2023-02-28T01:46:07;2.50;1.00
8565;DHT22;4320;51.498;6.556;2023-02-28T01:48:37;2.50;1.00
8565;DHT22;4320;51.498;6.556;2023-02-28T01:51:09;2.50;1.00
8565;DHT22;4320;51.498;6.556;2023-02-28T01:53:51;2.40;1.00
8565;DHT22;4320;51.498;6.556;2023-02-28T01:56:22;2.40;1.00
8565;DHT22;4320;51.498;6.556;2023-02-28T01:58:53;2.40;1.00
8565;DHT22;4320;51.498;6.556;2023-02-28T02:01:21;2.30;1.00
8565;DHT22;4320;51.498;6.556;2023-02-28T02:03:54;2.30;1.00
8565;DHT22;4320;51.498;6.556;2023-02-28T02:06:25;2.30;1.00
8565;DHT22;4320;51.498;6.556;2023-02-28T02:08:52;2.30;1.00
8565;DHT22;4320;51.498;6.556;2023-02-28T02:11:19;2.20;1.00
8565;DHT22;4320;51.498;6.556;2023-02-28T02:22:05;2.30;1.00
8565;DHT22;4320;51.498;6.556;2023-02-28T02:34:58;2.20;1.00
8565;DHT22;4320;51.498;6.556;2023-02-28T02:40:31;2.20;1.00
8565;DHT22;4320;51.498;6.556;2023-02-28T02:43:08;2.30;1.00
8565;DHT22;4320;51.498;6.556;2023-02-28T02:45:48;2.30;1.00
8565;DHT22;4320;51.498;6.556;2023-02-28T02:48:20;2.30;1.00
8565;DHT22;4320;51.498;6.556;2023-02-28T02:50:57;2.30;1.00
8565;DHT22;4320;51.498;6.556;2023-02-28T02:53:32;2.40;1.00
8565;DHT22;4320;51.498;6.556;2023-02-28T02:56:01;2.40;1.00
8565;DHT22;4320;51.498;6.556;2023-02-28T02:58:33;2.30;1.00
8565;DHT22;4320;51.498;6.556;2023-02-28T03:01:02;2.30;1.00
8565;DHT22;4320;51.498;6.556;2023-02-28T03:03:30;2.30;1.00
8565;DHT22;4320;51.498;6.556;2023-02-28T03:05:59;2.30;1.00
8565;DHT22;4320;51.498;6.556;2023-02-28T03:08:26;2.20;1.00
8565;DHT22;4320;51.498;6.556;2023-02-28T03:10:56;2.10;1.00
8565;DHT22;4320;51.498;6.556;2023-02-28T03:16:52;2.10;1.00
8565;DHT22;4320;51.498;6.556;2023-02-28T03:22:31;2.10;1.00
8565;DHT22;4320;51.498;6.556;2023-02-28T03:25:16;2.00;1.00
8565;DHT22;4320;51.498;6.556;2023-02-28T03:28:16;2.00;1.00
8565;DHT22;4320;51.498;6.556;2023-02-28T03:30:51;2.00;1.00
8565;DHT22;4320;51.498;6.556;2023-02-28T03:33:23;2.00;1.00
8565;DHT22;4320;51.498;6.556;2023-02-28T03:35:56;2.00;1.00
8565;DHT22;4320;51.498;6.556;2023-02-28T03:38:51;2.00;1.00
8565;DHT22;4320;51.498;6.556;2023-02-28T03:41:24;2.00;1.00
8565;DHT22;4320;51.498;6.556;2023-02-28T03:43:55;2.00;1.00
8565;DHT22;4320;51.498;6.556;2023-02-28T03:46:25;2.00;1.00
8565;DHT22;4320;51.498;6.556;2023-02-28T03:49:06;2.00;1.00
8565;DHT22;4320;51.498;6.556;2023-02-28T03:51:34;2.00;1.00
8565;DHT22;4320;51.498;6.556;2023-02-28T03:54:05;2.00;1.00
8565;DHT22;4320;51.498;6.556;2023-02-28T03:57:02;1.90;1.00
8565;DHT22;4320;51.498;6.556;2023-02-28T03:59:34;1.90;1.00
8565;DHT22;4320;51.498;6.556;2023-02-28T04:02:02;1.90;1.00
8565;DHT22;4320;51.498;6.556;2023-02-28T04:04:28;1.90;1.00
8565;DHT22;4320;51.498;6.556;2023-02-28T04:07:03;1.90;1.00
8565;DHT22;4320;51.498;6.556;2023-02-28T04:09:28;1.80;1.00
8565;DHT22;4320;51.498;6.556;2023-02-28T04:11:54;1.80;1.00
8565;DHT22;4320;51.498;6.556;2023-02-28T04:14:23;1.80;1.00
8565;DHT22;4320;51.498;6.556;2023-02-28T04:16:49;1.80;1.00
8565;DHT22;4320;51.498;6.556;2023-02-28T04:19:16;1.80;1.00
8565;DHT22;4320;51.498;6.556;2023-02-28T04:21:44;1.80;1.00
8565;DHT22;4320;51.498;6.556;2023-02-28T04:24:15;1.80;1.00
8565;DHT22;4320;51.498;6.556;2023-02-28T04:26:45;1.80;1.00
8565;DHT22;4320;51.498;6.556;2023-02-28T04:29:13;1.80;1.00
8565;DHT22;4320;51.498;6.556;2023-02-28T04:31:39;1.70;1.00
8565;DHT22;4320;51.498;6.556;2023-02-28T04:34:06;1.70;1.00
8565;DHT22;4320;51.498;6.556;2023-02-28T04:36:31;1.70;1.00
8565;DHT22;4320;51.498;6.556;2023-02-28T04:38:57;1.70;1.00
8565;DHT22;4320;51.498;6.556;2023-02-28T04:41:23;1.70;1.00
8565;DHT22;4320;51.498;6.556;2023-02-28T04:43:50;1.60;1.00
8565;DHT22;4320;51.498;6.556;2023-02-28T04:46:16;1.60;1.00
8565;DHT22;4320;51.498;6.556;2023-02-28T04:48:42;1.60;1.00
8565;DHT22;4320;51.498;6.556;2023-02-28T04:51:12;1.60;1.00
8565;DHT22;4320;51.498;6.556;2023-02-28T04:53:39;1.60;1.00
8565;DHT22;4320;51.498;6.556;2023-02-28T04:56:06;1.60;1.00
8565;DHT22;4320;51.498;6.556;2023-02-28T04:58:33;1.60;1.00
8565;DHT22;4320;51.498;6.556;2023-02-28T05:01:07;1.50;1.00
8565;DHT22;4320;51.498;6.556;2023-02-28T05:03:39;1.50;1.00
8565;DHT22;4320;51.498;6.556;2023-02-28T05:06:09;1.50;1.00
8565;DHT22;4320;51.498;6.556;2023-02-28T05:08:35;1.50;1.00
8565;DHT22;4320;51.498;6.556;2023-02-28T05:11:02;1.50;1.00
8565;DHT22;4320;51.498;6.556;2023-02-28T05:13:28;1.50;1.00
8565;DHT22;4320;51.498;6.556;2023-02-28T05:15:54;1.40;1.00
8565;DHT22;4320;51.498;6.556;2023-02-28T05:18:20;1.40;1.00
8565;DHT22;4320;51.498;6.556;2023-02-28T05:20:46;1.40;1.00
8565;DHT22;4320;51.498;6.556;2023-02-28T05:23:13;1.40;1.00
8565;DHT22;4320;51.498;6.556;2023-02-28T05:25:40;1.30;1.00
8565;DHT22;4320;51.498;6.556;2023-02-28T05:28:06;1.30;1.00
8565;DHT22;4320;51.498;6.556;2023-02-28T05:30:32;1.30;1.00
8565;DHT22;4320;51.498;6.556;2023-02-28T05:32:57;1.20;1.00
8565;DHT22;4320;51.498;6.556;2023-02-28T05:35:24;1.20;1.00
8565;DHT22;4320;51.498;6.556;2023-02-28T05:37:50;1.20;1.00
8565;DHT22;4320;51.498;6.556;2023-02-28T05:40:16;1.20;1.00
8565;DHT22;4320;51.498;6.556;2023-02-28T05:42:42;1.30;1.00
8565;DHT22;4320;51.498;6.556;2023-02-28T05:45:08;1.20;1.00
8565;DHT22;4320;51.498;6.556;2023-02-28T05:47:34;1.30;1.00
8565;DHT22;4320;51.498;6.556;2023-02-28T05:50:00;1.20;1.00
8565;DHT22;4320;51.498;6.556;2023-02-28T05:52:27;1.30;1.00
8565;DHT22;4320;51.498;6.556;2023-02-28T05:54:53;1.30;1.00
8565;DHT22;4320;51.498;6.556;2023-02-28T05:57:18;1.30;1.00
8565;DHT22;4320;51.498;6.556;2023-02-28T05:59:44;1.30;1.00
8565;DHT22;4320;51.498;6.556;2023-02-28T06:02:14;1.40;1.00
8565;DHT22;4320;51.498;6.556;2023-02-28T06:04:40;1.40;1.00
8565;DHT22;4320;51.498;6.556;2023-02-28T06:07:07;1.50;1.00
8565;DHT22;4320;51.498;6.556;2023-02-28T06:09:33;1.50;1.00
8565;DHT22;4320;51.498;6.556;2023-02-28T06:11:59;1.40;1.00
8565;DHT22;4320;51.498;6.556;2023-02-28T06:14:25;1.40;1.00
8565;DHT22;4320;51.498;6.556;2023-02-28T06:16:51;1.40;1.00
8565;DHT22;4320;51.498;6.556;2023-02-28T06:19:17;1.30;1.00
8565;DHT22;4320;51.498;6.556;2023-02-28T06:21:43;1.30;1.00
8565;DHT22;4320;51.498;6.556;2023-02-28T06:24:09;1.30;1.00
8565;DHT22;4320;51.498;6.556;2023-02-28T06:26:35;1.30;1.00
8565;DHT22;4320;51.498;6.556;2023-02-28T06:29:01;1.30;1.00
8565;DHT22;4320;51.498;6.556;2023-02-28T06:31:28;1.20;1.00
8565;DHT22;4320;51.498;6.556;2023-02-28T06:33:55;1.20;1.00
8565;DHT22;4320;51.498;6.556;2023-02-28T06:36:21;1.30;1.00
8565;DHT22;4320;51.498;6.556;2023-02-28T06:38:47;1.30;1.00
8565;DHT22;4320;51.498;6.556;2023-02-28T06:41:17;1.20;1.00
8565;DHT22;4320;51.498;6.556;2023-02-28T06:43:43;1.30;1.00
8565;DHT22;4320;51.498;6.556;2023-02-28T06:46:12;1.40;1.00
8565;DHT22;4320;51.498;6.556;2023-02-28T06:48:39;1.40;1.00
8565;DHT22;4320;51.498;6.556;2023-02-28T06:51:10;1.40;1.00
8565;DHT22;4320;51.498;6.556;2023-02-28T06:53:36;1.40;1.00
8565;DHT22;4320;51.498;6.556;2023-02-28T06:56:10;1.30;1.00
8565;DHT22;4320;51.498;6.556;2023-02-28T06:58:36;1.30;1.00
8565;DHT22;4320;51.498;6.556;2023-02-28T07:01:03;1.40;1.00
8565;DHT22;4320;51.498;6.556;2023-02-28T07:03:29;1.40;1.00
8565;DHT22;4320;51.498;6.556;2023-02-28T07:05:55;1.40;1.00
8565;DHT22;4320;51.498;6.556;2023-02-28T07:08:25;1.40;1.00
8565;DHT22;4320;51.498;6.556;2023-02-28T07:10:53;1.40;1.00
8565;DHT22;4320;51.498;6.556;2023-02-28T07:13:19;1.50;1.00
8565;DHT22;4320;51.498;6.556;2023-02-28T07:16:02;1.50;1.00
8565;DHT22;4320;51.498;6.556;2023-02-28T07:18:28;1.70;1.00
8565;DHT22;4320;51.498;6.556;2023-02-28T07:20:54;1.80;1.00
8565;DHT22;4320;51.498;6.556;2023-02-28T07:23:21;2.00;1.00
8565;DHT22;4320;51.498;6.556;2023-02-28T07:25:46;2.20;1.00
8565;DHT22;4320;51.498;6.556;2023-02-28T07:28:12;2.40;1.00
8565;DHT22;4320;51.498;6.556;2023-02-28T07:30:39;2.60;1.00
8565;DHT22;4320;51.498;6.556;2023-02-28T07:33:05;2.90;1.00
8565;DHT22;4320;51.498;6.556;2023-02-28T07:35:30;3.20;1.00
8565;DHT22;4320;51.498;6.556;2023-02-28T07:38:00;3.60;1.00
8565;DHT22;4320;51.498;6.556;2023-02-28T07:40:25;3.90;1.00
8565;DHT22;4320;51.498;6.556;2023-02-28T07:42:51;4.20;1.00
8565;DHT22;4320;51.498;6.556;2023-02-28T07:45:17;4.60;1.00
8565;DHT22;4320;51.498;6.556;2023-02-28T07:47:43;5.00;1.00
8565;DHT22;4320;51.498;6.556;2023-02-28T07:50:11;5.70;1.00
8565;DHT22;4320;51.498;6.556;2023-02-28T07:52:38;6.30;1.00
8565;DHT22;4320;51.498;6.556;2023-02-28T07:55:05;7.10;1.00
8565;DHT22;4320;51.498;6.556;2023-02-28T07:57:31;7.80;1.00
8565;DHT22;4320;51.498;6.556;2023-02-28T07:59:57;8.40;1.00
8565;DHT22;4320;51.498;6.556;2023-02-28T08:02:23;9.30;1.00
8565;DHT22;4320;51.498;6.556;2023-02-28T08:04:48;10.00;1.00
8565;DHT22;4320;51.498;6.556;2023-02-28T08:07:15;10.50;1.00
8565;DHT22;4320;51.498;6.556;2023-02-28T08:09:42;11.10;1.00
8565;DHT22;4320;51.498;6.556;2023-02-28T08:12:08;11.70;1.00
8565;DHT22;4320;51.498;6.556;2023-02-28T08:14:36;11.50;1.00
8565;DHT22;4320;51.498;6.556;2023-02-28T08:17:02;11.80;1.00
8565;DHT22;4320;51.498;6.556;2023-02-28T08:19:28;12.20;1.00
8565;DHT22;4320;51.498;6.556;2023-02-28T08:21:54;12.70;1.00
8565;DHT22;4320;51.498;6.556;2023-02-28T08:24:19;13.10;1.00
8565;DHT22;4320;51.498;6.556;2023-02-28T08:26:45;13.50;1.00
8565;DHT22;4320;51.498;6.556;2023-02-28T08:29:11;13.90;1.00
8565;DHT22;4320;51.498;6.556;2023-02-28T08:31:36;14.20;1.00
8565;DHT22;4320;51.498;6.556;2023-02-28T08:34:11;13.70;1.00
8565;DHT22;4320;51.498;6.556;2023-02-28T08:36:37;13.60;1.00
8565;DHT22;4320;51.498;6.556;2023-02-28T08:39:03;14.40;1.00
8565;DHT22;4320;51.498;6.556;2023-02-28T08:41:29;14.70;1.00
8565;DHT22;4320;51.498;6.556;2023-02-28T08:43:54;14.80;1.00
8565;DHT22;4320;51.498;6.556;2023-02-28T08:46:20;14.20;1.00
8565;DHT22;4320;51.498;6.556;2023-02-28T08:48:46;14.30;1.00
8565;DHT22;4320;51.498;6.556;2023-02-28T08:51:16;13.60;1.00
8565;DHT22;4320;51.498;6.556;2023-02-28T08:53:44;13.40;1.00
8565;DHT22;4320;51.498;6.556;2023-02-28T08:56:16;13.50;1.00
8565;DHT22;4320;51.498;6.556;2023-02-28T08:58:46;11.90;1.00
8565;DHT22;4320;51.498;6.556;2023-02-28T09:01:14;11.00;1.00
8565;DHT22;4320;51.498;6.556;2023-02-28T09:03:41;10.20;1.00
8565;DHT22;4320;51.498;6.556;2023-02-28T09:06:07;9.90;1.00
8565;DHT22;4320;51.498;6.556;2023-02-28T09:08:33;11.00;1.00
8565;DHT22;4320;51.498;6.556;2023-02-28T09:10:59;12.10;1.00
8565;DHT22;4320;51.498;6.556;2023-02-28T09:13:26;12.60;1.00
8565;DHT22;4320;51.498;6.556;2023-02-28T09:15:53;13.20;1.00
8565;DHT22;4320;51.498;6.556;2023-02-28T09:18:19;13.80;1.00
8565;DHT22;4320;51.498;6.556;2023-02-28T09:20:45;14.40;1.00
8565;DHT22;4320;51.498;6.556;2023-02-28T09:23:12;14.20;1.00
8565;DHT22;4320;51.498;6.556;2023-02-28T09:25:52;14.20;1.00
8565;DHT22;4320;51.498;6.556;2023-02-28T09:28:19;13.10;1.00
8565;DHT22;4320;51.498;6.556;2023-02-28T09:30:47;12.90;1.00
8565;DHT22;4320;51.498;6.556;2023-02-28T09:33:13;12.00;1.00
8565;DHT22;4320;51.498;6.556;2023-02-28T09:35:39;11.80;1.00
8565;DHT22;4320;51.498;6.556;2023-02-28T09:38:05;11.50;1.00
8565;DHT22;4320;51.498;6.556;2023-02-28T09:40:36;12.10;1.00
8565;DHT22;4320;51.498;6.556;2023-02-28T09:43:02;12.90;1.00
8565;DHT22;4320;51.498;6.556;2023-02-28T09:45:30;13.60;1.00
8565;DHT22;4320;51.498;6.556;2023-02-28T09:48:06;13.90;1.00
8565;DHT22;4320;51.498;6.556;2023-02-28T09:51:33;14.00;1.00
8565;DHT22;4320;51.498;6.556;2023-02-28T09:53:41;14.40;1.00
8565;DHT22;4320;51.498;6.556;2023-02-28T09:56:18;12.40;1.00
8565;DHT22;4320;51.498;6.556;2023-02-28T10:01:43;11.80;1.00
8565;DHT22;4320;51.498;6.556;2023-02-28T10:06:51;11.90;1.00
8565;DHT22;4320;51.498;6.556;2023-02-28T10:09:32;12.20;1.00
8565;DHT22;4320;51.498;6.556;2023-02-28T10:12:05;11.30;1.00
8565;DHT22;4320;51.498;6.556;2023-02-28T10:14:33;11.10;1.00
8565;DHT22;4320;51.498;6.556;2023-02-28T10:17:08;10.40;1.00
8565;DHT22;4320;51.498;6.556;2023-02-28T10:25:25;7.80;1.00
8565;DHT22;4320;51.498;6.556;2023-02-28T10:28:01;7.40;1.00
8565;DHT22;4320;51.498;6.556;2023-02-28T10:30:27;7.20;1.00
8565;DHT22;4320;51.498;6.556;2023-02-28T10:32:53;7.10;1.00
8565;DHT22;4320;51.498;6.556;2023-02-28T10:35:23;7.00;1.00
8565;DHT22;4320;51.498;6.556;2023-02-28T10:37:53;6.70;1.00
8565;DHT22;4320;51.498;6.556;2023-02-28T10:43:05;7.30;1.00
8565;DHT22;4320;51.498;6.556;2023-02-28T10:45:33;7.40;1.00
8565;DHT22;4320;51.498;6.556;2023-02-28T10:48:23;7.70;1.00
8565;DHT22;4320;51.498;6.556;2023-02-28T10:50:52;7.60;1.00
8565;DHT22;4320;51.498;6.556;2023-02-28T10:59:02;7.80;1.00
8565;DHT22;4320;51.498;6.556;2023-02-28T11:01:40;8.50;1.00
8565;DHT22;4320;51.498;6.556;2023-02-28T11:07:14;9.10;1.00
8565;DHT22;4320;51.498;6.556;2023-02-28T11:09:45;9.40;1.00
8565;DHT22;4320;51.498;6.556;2023-02-28T11:12:26;8.90;1.00
8565;DHT22;4320;51.498;6.556;2023-02-28T11:14:57;8.70;1.00
8565;DHT22;4320;51.498;6.556;2023-02-28T11:17:29;8.60;1.00
8565;DHT22;4320;51.498;6.556;2023-02-28T11:20:05;8.40;1.00
8565;DHT22;4320;51.498;6.556;2023-02-28T11:22:38;7.80;1.00
8565;DHT22;4320;51.498;6.556;2023-02-28T11:25:19;7.50;1.00
8565;DHT22;4320;51.498;6.556;2023-02-28T11:27:54;6.90;1.00
8565;DHT22;4320;51.498;6.556;2023-02-28T11:30:38;7.10;1.00
8565;DHT22;4320;51.498;6.556;2023-02-28T11:35:50;7.20;1.00
8565;DHT22;4320;51.498;6.556;2023-02-28T11:38:16;7.30;1.00
8565;DHT22;4320;51.498;6.556;2023-02-28T11:46:25;8.00;1.00
8565;DHT22;4320;51.498;6.556;2023-02-28T11:49:02;8.30;1.00
8565;DHT22;4320;51.498;6.556;2023-02-28T11:51:48;8.30;1.00
8565;DHT22;4320;51.498;6.556;2023-02-28T12:19:16;7.80;1.00
8565;DHT22;4320;51.498;6.556;2023-02-28T12:27:34;7.60;1.00
8565;DHT22;4320;51.498;6.556;2023-02-28T12:32:44;7.30;1.00
8565;DHT22;4320;51.498;6.556;2023-02-28T12:37:43;7.80;1.00
8565;DHT22;4320;51.498;6.556;2023-02-28T12:40:13;7.90;1.00
8565;DHT22;4320;51.498;6.556;2023-02-28T12:42:55;7.80;1.00
8565;DHT22;4320;51.498;6.556;2023-02-28T12:45:42;7.90;1.00
8565;DHT22;4320;51.498;6.556;2023-02-28T12:48:13;7.80;1.00
8565;DHT22;4320;51.498;6.556;2023-02-28T12:50:40;7.70;1.00
8565;DHT22;4320;51.498;6.556;2023-02-28T12:53:11;7.60;1.00
8565;DHT22;4320;51.498;6.556;2023-02-28T12:55:50;7.50;1.00
8565;DHT22;4320;51.498;6.556;2023-02-28T12:58:31;7.60;1.00
8565;DHT22;4320;51.498;6.556;2023-02-28T13:04:21;7.40;1.00
8565;DHT22;4320;51.498;6.556;2023-02-28T13:09:17;7.40;1.00
8565;DHT22;4320;51.498;6.556;2023-02-28T13:11:54;7.50;1.00
8565;DHT22;4320;51.498;6.556;2023-02-28T13:14:27;7.30;1.00
8565;DHT22;4320;51.498;6.556;2023-02-28T13:19:39;7.70;1.00
8565;DHT22;4320;51.498;6.556;2023-02-28T13:22:19;7.90;1.00
8565;DHT22;4320;51.498;6.556;2023-02-28T13:24:53;8.20;1.00
8565;DHT22;4320;51.498;6.556;2023-02-28T13:27:32;8.20;1.00
8565;DHT22;4320;51.498;6.556;2023-02-28T13:29:58;8.30;1.00
8565;DHT22;4320;51.498;6.556;2023-02-28T13:32:35;8.40;1.00
8565;DHT22;4320;51.498;6.556;2023-02-28T13:37:34;8.90;1.00
8565;DHT22;4320;51.498;6.556;2023-02-28T13:42:36;9.00;1.00
8565;DHT22;4320;51.498;6.556;2023-02-28T13:48:00;9.00;1.00
8565;DHT22;4320;51.498;6.556;2023-02-28T13:53:21;8.70;1.00
8565;DHT22;4320;51.498;6.556;2023-02-28T13:56:19;8.80;1.00
8565;DHT22;4320;51.498;6.556;2023-02-28T13:59:08;8.80;1.00
8565;DHT22;4320;51.498;6.556;2023-02-28T14:07:40;9.20;1.00
8565;DHT22;4320;51.498;6.556;2023-02-28T14:10:15;9.30;1.00
8565;DHT22;4320;51.498;6.556;2023-02-28T14:15:55;9.00;1.00
8565;DHT22;4320;51.498;6.556;2023-02-28T14:18:22;9.00;1.00
8565;DHT22;4320;51.498;6.556;2023-02-28T14:20:50;8.90;1.00
8565;DHT22;4320;51.498;6.556;2023-02-28T14:23:35;9.00;1.00
8565;DHT22;4320;51.498;6.556;2023-02-28T14:37:41;8.30;1.00
8565;DHT22;4320;51.498;6.556;2023-02-28T14:40:38;8.10;1.00
8565;DHT22;4320;51.498;6.556;2023-02-28T14:43:06;8.00;1.00
8565;DHT22;4320;51.498;6.556;2023-02-28T14:45:35;7.70;1.00
8565;DHT22;4320;51.498;6.556;2023-02-28T14:48:05;7.30;1.00
8565;DHT22;4320;51.498;6.556;2023-02-28T14:50:36;7.20;1.00
8565;DHT22;4320;51.498;6.556;2023-02-28T14:53:02;7.30;1.00
8565;DHT22;4320;51.498;6.556;2023-02-28T14:55:34;7.30;1.00
8565;DHT22;4320;51.498;6.556;2023-02-28T14:58:05;7.10;1.00
8565;DHT22;4320;51.498;6.556;2023-02-28T15:00:36;7.20;1.00
8565;DHT22;4320;51.498;6.556;2023-02-28T15:03:23;7.10;1.00
8565;DHT22;4320;51.498;6.556;2023-02-28T15:06:03;7.00;1.00
8565;DHT22;4320;51.498;6.556;2023-02-28T15:08:30;7.00;1.00
8565;DHT22;4320;51.498;6.556;2023-02-28T15:11:19;7.10;1.00
8565;DHT22;4320;51.498;6.556;2023-02-28T15:13:52;7.10;1.00
8565;DHT22;4320;51.498;6.556;2023-02-28T15:19:12;7.10;1.00
8565;DHT22;4320;51.498;6.556;2023-02-28T15:21:45;7.10;1.00
8565;DHT22;4320;51.498;6.556;2023-02-28T15:24:30;7.10;1.00
8565;DHT22;4320;51.498;6.556;2023-02-28T15:27:00;7.10;1.00
8565;DHT22;4320;51.498;6.556;2023-02-28T15:29:29;7.00;1.00
8565;DHT22;4320;51.498;6.556;2023-02-28T15:32:00;6.90;1.00
8565;DHT22;4320;51.498;6.556;2023-02-28T15:34:39;6.90;1.00
8565;DHT22;4320;51.498;6.556;2023-02-28T15:37:28;6.90;1.00
8565;DHT22;4320;51.498;6.556;2023-02-28T15:39:58;7.00;1.00
8565;DHT22;4320;51.498;6.556;2023-02-28T15:42:28;6.80;1.00
8565;DHT22;4320;51.498;6.556;2023-02-28T15:44:54;6.60;1.00
8565;DHT22;4320;51.498;6.556;2023-02-28T15:47:25;6.60;1.00
8565;DHT22;4320;51.498;6.556;2023-02-28T15:49:52;6.60;1.00
8565;DHT22;4320;51.498;6.556;2023-02-28T15:55:22;6.70;1.00
8565;DHT22;4320;51.498;6.556;2023-02-28T15:57:51;6.60;1.00
8565;DHT22;4320;51.498;6.556;2023-02-28T16:00:23;6.70;1.00
8565;DHT22;4320;51.498;6.556;2023-02-28T16:02:50;6.70;1.00
8565;DHT22;4320;51.498;6.556;2023-02-28T16:05:23;6.60;1.00
8565;DHT22;4320;51.498;6.556;2023-02-28T16:07:54;6.60;1.00
8565;DHT22;4320;51.498;6.556;2023-02-28T16:10:21;6.60;1.00
8565;DHT22;4320;51.498;6.556;2023-02-28T16:12:52;6.60;1.00
8565;DHT22;4320;51.498;6.556;2023-02-28T16:17:48;6.60;1.00
8565;DHT22;4320;51.498;6.556;2023-02-28T16:20:18;6.60;1.00
8565;DHT22;4320;51.498;6.556;2023-02-28T16:22:44;6.60;1.00
8565;DHT22;4320;51.498;6.556;2023-02-28T16:25:16;6.60;1.00
8565;DHT22;4320;51.498;6.556;2023-02-28T16:27:43;6.60;1.00
8565;DHT22;4320;51.498;6.556;2023-02-28T16:30:26;6.60;1.00
8565;DHT22;4320;51.498;6.556;2023-02-28T16:32:55;6.50;1.00
8565;DHT22;4320;51.498;6.556;2023-02-28T16:35:21;6.50;1.00
8565;DHT22;4320;51.498;6.556;2023-02-28T16:37:46;6.50;1.00
8565;DHT22;4320;51.498;6.556;2023-02-28T16:40:18;6.50;1.00
8565;DHT22;4320;51.498;6.556;2023-02-28T16:42:46;6.50;1.00
8565;DHT22;4320;51.498;6.556;2023-02-28T16:45:23;6.40;1.00
8565;DHT22;4320;51.498;6.556;2023-02-28T16:47:49;6.30;1.00
8565;DHT22;4320;51.498;6.556;2023-02-28T16:50:27;6.40;1.00
8565;DHT22;4320;51.498;6.556;2023-02-28T16:52:53;6.30;1.00
8565;DHT22;4320;51.498;6.556;2023-02-28T16:55:20;6.20;1.00
8565;DHT22;4320;51.498;6.556;2023-02-28T16:57:54;6.20;1.00
8565;DHT22;4320;51.498;6.556;2023-02-28T17:00:21;6.20;1.00
8565;DHT22;4320;51.498;6.556;2023-02-28T17:02:47;6.10;1.00
8565;DHT22;4320;51.498;6.556;2023-02-28T17:05:13;6.10;1.00
8565;DHT22;4320;51.498;6.556;2023-02-28T17:07:41;6.00;1.00
8565;DHT22;4320;51.498;6.556;2023-02-28T17:10:28;6.00;1.00
8565;DHT22;4320;51.498;6.556;2023-02-28T17:12:54;5.90;1.00
8565;DHT22;4320;51.498;6.556;2023-02-28T17:15:20;5.90;1.00
8565;DHT22;4320;51.498;6.556;2023-02-28T17:17:47;5.90;1.00
8565;DHT22;4320;51.498;6.556;2023-02-28T17:20:19;5.90;1.00
8565;DHT22;4320;51.498;6.556;2023-02-28T17:22:48;5.90;1.00
8565;DHT22;4320;51.498;6.556;2023-02-28T17:25:13;5.80;1.00
8565;DHT22;4320;51.498;6.556;2023-02-28T17:27:39;5.80;1.00
8565;DHT22;4320;51.498;6.556;2023-02-28T17:30:25;5.70;1.00
8565;DHT22;4320;51.498;6.556;2023-02-28T17:32:55;5.70;1.00
8565;DHT22;4320;51.498;6.556;2023-02-28T17:35:22;5.70;1.00
8565;DHT22;4320;51.498;6.556;2023-02-28T17:37:48;5.70;1.00
8565;DHT22;4320;51.498;6.556;2023-02-28T17:40:16;5.70;1.00
8565;DHT22;4320;51.498;6.556;2023-02-28T17:42:43;5.70;1.00
8565;DHT22;4320;51.498;6.556;2023-02-28T17:45:09;5.70;1.00
8565;DHT22;4320;51.498;6.556;2023-02-28T17:47:35;5.70;1.00
8565;DHT22;4320;51.498;6.556;2023-02-28T17:50:00;5.70;1.00
8565;DHT22;4320;51.498;6.556;2023-02-28T17:52:26;5.70;1.00
8565;DHT22;4320;51.498;6.556;2023-02-28T17:54:51;5.60;1.00
8565;DHT22;4320;51.498;6.556;2023-02-28T17:57:17;5.50;1.00
8565;DHT22;4320;51.498;6.556;2023-02-28T17:59:45;5.40;1.00
8565;DHT22;4320;51.498;6.556;2023-02-28T18:02:12;5.30;1.00
8565;DHT22;4320;51.498;6.556;2023-02-28T18:04:38;5.30;1.00
8565;DHT22;4320;51.498;6.556;2023-02-28T18:07:06;5.20;1.00
8565;DHT22;4320;51.498;6.556;2023-02-28T18:09:34;5.20;1.00
8565;DHT22;4320;51.498;6.556;2023-02-28T18:12:00;5.10;1.00
8565;DHT22;4320;51.498;6.556;2023-02-28T18:14:25;5.10;1.00
8565;DHT22;4320;51.498;6.556;2023-02-28T18:16:52;5.10;1.00
8565;DHT22;4320;51.498;6.556;2023-02-28T18:19:19;5.20;1.00
8565;DHT22;4320;51.498;6.556;2023-02-28T18:21:48;5.20;1.00
8565;DHT22;4320;51.498;6.556;2023-02-28T18:24:14;5.20;1.00
8565;DHT22;4320;51.498;6.556;2023-02-28T18:26:41;5.20;1.00
8565;DHT22;4320;51.498;6.556;2023-02-28T18:29:08;5.20;1.00
8565;DHT22;4320;51.498;6.556;2023-02-28T18:31:34;5.10;1.00
8565;DHT22;4320;51.498;6.556;2023-02-28T18:34:00;5.10;1.00
8565;DHT22;4320;51.498;6.556;2023-02-28T18:36:26;5.10;1.00
8565;DHT22;4320;51.498;6.556;2023-02-28T18:38:53;5.10;1.00
8565;DHT22;4320;51.498;6.556;2023-02-28T18:41:20;5.10;1.00
8565;DHT22;4320;51.498;6.556;2023-02-28T18:43:46;5.00;1.00
8565;DHT22;4320;51.498;6.556;2023-02-28T18:46:15;5.00;1.00
8565;DHT22;4320;51.498;6.556;2023-02-28T18:48:41;4.90;1.00
8565;DHT22;4320;51.498;6.556;2023-02-28T18:51:12;4.90;1.00
8565;DHT22;4320;51.498;6.556;2023-02-28T18:53:39;4.90;1.00
8565;DHT22;4320;51.498;6.556;2023-02-28T18:56:07;4.90;1.00
8565;DHT22;4320;51.498;6.556;2023-02-28T18:58:33;4.80;1.00
8565;DHT22;4320;51.498;6.556;2023-02-28T19:01:00;4.80;1.00
8565;DHT22;4320;51.498;6.556;2023-02-28T19:03:26;4.80;1.00
8565;DHT22;4320;51.498;6.556;2023-02-28T19:05:56;4.70;1.00
8565;DHT22;4320;51.498;6.556;2023-02-28T19:08:23;4.70;1.00
8565;DHT22;4320;51.498;6.556;2023-02-28T19:10:48;4.60;1.00
8565;DHT22;4320;51.498;6.556;2023-02-28T19:13:14;4.60;1.00